createdAt,value
2019-05-26T00:00:12.592Z,12.93
2019-05-26T00:02:39.660Z,12.91
2019-05-26T00:05:07.811Z,12.89
2019-05-26T00:07:34.874Z,12.88
2019-05-26T00:10:02.435Z,12.84
2019-05-26T00:12:29.823Z,12.83
2019-05-26T00:14:56.892Z,12.83
2019-05-26T00:17:23.960Z,12.85
2019-05-26T00:19:51.045Z,12.88
2019-05-26T00:22:18.198Z,12.88
2019-05-26T00:24:45.291Z,12.93
2019-05-26T00:27:12.412Z,12.94
2019-05-26T00:29:39.522Z,12.93
2019-05-26T00:32:06.592Z,12.91
2019-05-26T00:34:33.695Z,12.91
2019-05-26T00:37:00.772Z,12.89
2019-05-26T00:39:27.847Z,12.87
2019-05-26T00:41:54.918Z,12.86
2019-05-26T00:44:22.025Z,12.87
2019-05-26T00:46:49.171Z,12.86
2019-05-26T00:49:16.243Z,12.84
2019-05-26T00:51:43.318Z,12.81
2019-05-26T00:54:10.390Z,12.80
2019-05-26T00:56:37.464Z,12.78
2019-05-26T00:59:05.852Z,12.76
2019-05-26T01:01:32.935Z,12.75
2019-05-26T01:04:00.018Z,12.75
2019-05-26T01:06:27.093Z,12.76
2019-05-26T01:08:54.166Z,12.75
2019-05-26T01:11:21.257Z,12.74
2019-05-26T01:13:48.330Z,12.73
2019-05-26T01:16:15.405Z,12.72
2019-05-26T01:18:42.469Z,12.70
2019-05-26T01:21:09.545Z,12.69
2019-05-26T01:23:36.611Z,12.67
2019-05-26T01:26:03.690Z,12.66
2019-05-26T01:28:30.768Z,12.65
2019-05-26T01:30:57.877Z,12.62
2019-05-26T01:33:24.959Z,12.56
2019-05-26T01:35:52.238Z,12.54
2019-05-26T01:38:24.491Z,12.49
2019-05-26T01:40:48.530Z,12.43
2019-05-26T01:43:16.862Z,12.36
2019-05-26T01:45:43.929Z,12.31
2019-05-26T01:48:10.989Z,12.27
2019-05-26T01:50:38.064Z,12.23
2019-05-26T01:53:06.080Z,12.22
2019-05-26T01:55:33.469Z,12.22
2019-05-26T01:58:00.539Z,12.22
2019-05-26T02:00:27.715Z,12.22
2019-05-26T02:02:55.339Z,12.19
2019-05-26T02:05:22.484Z,12.18
2019-05-26T02:07:49.584Z,12.14
2019-05-26T02:10:16.662Z,12.12
2019-05-26T02:12:44.879Z,12.09
2019-05-26T02:15:13.274Z,12.05
2019-05-26T02:17:40.349Z,12.04
2019-05-26T02:20:07.728Z,12.05
2019-05-26T02:22:34.930Z,12.04
2019-05-26T02:25:02.193Z,12.02
2019-05-26T02:27:29.298Z,11.98
2019-05-26T02:29:56.411Z,11.95
2019-05-26T02:32:23.492Z,11.90
2019-05-26T02:34:50.563Z,11.84
2019-05-26T02:37:17.648Z,11.82
2019-05-26T02:39:44.723Z,11.81
2019-05-26T02:42:11.786Z,11.81
2019-05-26T02:44:38.871Z,11.80
2019-05-26T02:47:05.984Z,11.79
2019-05-26T02:49:33.068Z,11.79
2019-05-26T02:52:00.151Z,11.79
2019-05-26T02:54:27.228Z,11.77
2019-05-26T02:56:54.513Z,11.76
2019-05-26T02:59:21.599Z,11.77
2019-05-26T03:02:02.480Z,11.76
2019-05-26T03:04:18.085Z,11.77
2019-05-26T03:06:46.675Z,11.77
2019-05-26T03:09:22.573Z,11.76
2019-05-26T03:11:47.763Z,11.76
2019-05-26T03:14:17.876Z,11.75
2019-05-26T03:16:46.367Z,11.74
2019-05-26T03:19:15.741Z,11.76
2019-05-26T03:21:46.018Z,11.79
2019-05-26T03:24:16.865Z,11.82
2019-05-26T03:26:44.046Z,11.84
2019-05-26T03:29:11.122Z,11.87
2019-05-26T03:31:38.197Z,11.87
2019-05-26T03:34:05.297Z,11.89
2019-05-26T03:36:32.372Z,11.90
2019-05-26T03:38:59.453Z,11.91
2019-05-26T03:41:26.528Z,11.90
2019-05-26T03:43:53.641Z,11.90
2019-05-26T03:46:20.966Z,11.90
2019-05-26T03:48:48.876Z,11.92
2019-05-26T03:51:15.951Z,11.91
2019-05-26T03:53:43.019Z,11.92
2019-05-26T03:56:10.081Z,11.92
2019-05-26T03:58:38.574Z,11.94
2019-05-26T04:01:05.646Z,11.94
2019-05-26T04:03:32.734Z,11.94
2019-05-26T04:05:59.834Z,11.92
2019-05-26T04:08:26.902Z,11.94
2019-05-26T04:10:53.978Z,11.97
2019-05-26T04:13:21.087Z,11.97
2019-05-26T04:15:48.170Z,11.97
2019-05-26T04:18:15.252Z,11.96
2019-05-26T04:20:45.928Z,11.92
2019-05-26T04:23:13.216Z,11.90
2019-05-26T04:25:40.315Z,11.90
2019-05-26T04:28:07.380Z,11.88
2019-05-26T04:30:34.441Z,11.87
2019-05-26T04:33:01.563Z,11.86
2019-05-26T04:35:28.624Z,11.85
2019-05-26T04:37:55.700Z,11.84
2019-05-26T04:40:27.343Z,11.82
2019-05-26T04:42:51.750Z,11.80
2019-05-26T04:45:18.840Z,11.79
2019-05-26T04:47:45.913Z,11.78
2019-05-26T04:50:13.082Z,11.76
2019-05-26T04:52:40.199Z,11.74
2019-05-26T04:55:07.662Z,11.73
2019-05-26T04:57:34.739Z,11.73
2019-05-26T05:00:01.836Z,11.73
2019-05-26T05:02:28.908Z,11.68
2019-05-26T05:04:55.981Z,11.65
2019-05-26T05:07:23.065Z,11.61
2019-05-26T05:09:50.136Z,11.57
2019-05-26T05:12:17.211Z,11.55
2019-05-26T05:14:44.327Z,11.52
2019-05-26T05:17:11.405Z,11.47
2019-05-26T05:19:38.508Z,11.43
2019-05-26T05:22:05.583Z,11.37
2019-05-26T05:24:32.683Z,11.31
2019-05-26T05:26:59.766Z,11.28
2019-05-26T05:29:26.840Z,11.29
2019-05-26T05:31:53.960Z,11.30
2019-05-26T05:34:21.035Z,11.27
2019-05-26T05:36:48.101Z,11.24
2019-05-26T05:39:15.200Z,11.22
2019-05-26T05:41:42.284Z,11.21
2019-05-26T05:44:09.375Z,11.17
2019-05-26T05:46:36.463Z,11.18
2019-05-26T05:49:03.646Z,11.18
2019-05-26T05:51:30.716Z,11.19
2019-05-26T05:53:57.797Z,11.20
2019-05-26T05:56:24.868Z,11.20
2019-05-26T05:58:51.949Z,11.20
2019-05-26T06:01:20.272Z,11.20
2019-05-26T06:03:48.431Z,11.20
2019-05-26T06:06:15.520Z,11.21
2019-05-26T06:08:42.584Z,11.22
2019-05-26T06:11:16.354Z,11.21
2019-05-26T06:13:38.684Z,11.22
2019-05-26T06:16:05.789Z,11.23
2019-05-26T06:18:32.856Z,11.26
2019-05-26T06:20:59.930Z,11.28
2019-05-26T06:23:27.047Z,11.28
2019-05-26T06:25:54.135Z,11.31
2019-05-26T06:28:21.220Z,11.30
2019-05-26T06:30:48.298Z,11.26
2019-05-26T06:33:15.370Z,11.22
2019-05-26T06:35:42.468Z,11.21
2019-05-26T06:38:09.555Z,11.20
2019-05-26T06:40:36.628Z,11.21
2019-05-26T06:43:03.816Z,11.22
2019-05-26T06:45:30.919Z,11.24
2019-05-26T06:47:58.235Z,11.25
2019-05-26T06:50:25.312Z,11.24
2019-05-26T06:52:52.398Z,11.26
2019-05-26T06:55:19.469Z,11.32
2019-05-26T06:57:46.537Z,11.35
2019-05-26T07:00:13.608Z,11.41
2019-05-26T07:02:40.683Z,11.45
2019-05-26T07:05:09.949Z,11.45
2019-05-26T07:07:37.060Z,11.44
2019-05-26T07:10:04.973Z,11.44
2019-05-26T07:12:32.038Z,11.44
2019-05-26T07:14:59.111Z,11.45
2019-05-26T07:17:26.187Z,11.48
2019-05-26T07:19:53.264Z,11.46
2019-05-26T07:22:20.356Z,11.46
2019-05-26T07:24:47.431Z,11.47
2019-05-26T07:27:14.508Z,11.48
2019-05-26T07:29:41.874Z,11.50
2019-05-26T07:32:08.951Z,11.51
2019-05-26T07:34:36.038Z,11.52
2019-05-26T07:37:03.102Z,11.53
2019-05-26T07:39:30.176Z,11.53
2019-05-26T07:42:09.975Z,11.57
2019-05-26T07:44:28.022Z,11.57
2019-05-26T07:46:55.095Z,11.61
2019-05-26T07:49:22.170Z,11.65
2019-05-26T07:51:49.233Z,11.67
2019-05-26T07:54:25.187Z,11.71
2019-05-26T07:56:45.283Z,11.75
2019-05-26T07:59:12.355Z,11.77
2019-05-26T08:01:39.435Z,11.75
2019-05-26T08:04:06.535Z,11.75
2019-05-26T08:06:33.653Z,11.77
2019-05-26T08:09:00.717Z,11.78
2019-05-26T08:11:27.794Z,11.81
2019-05-26T08:13:54.867Z,11.83
2019-05-26T08:16:23.115Z,11.82
2019-05-26T08:18:50.199Z,11.81
2019-05-26T08:21:18.375Z,11.81
2019-05-26T08:23:45.471Z,11.77
2019-05-26T08:26:12.536Z,11.73
2019-05-26T08:28:39.610Z,11.74
2019-05-26T08:31:06.690Z,11.74
2019-05-26T08:33:34.313Z,11.76
2019-05-26T08:36:01.377Z,11.78
2019-05-26T08:38:28.547Z,11.76
2019-05-26T08:40:55.623Z,11.76
2019-05-26T08:43:22.697Z,11.75
2019-05-26T08:45:49.788Z,11.74
2019-05-26T08:48:16.852Z,11.73
2019-05-26T08:50:43.935Z,11.72
2019-05-26T08:53:11.019Z,11.73
2019-05-26T08:55:38.097Z,11.73
2019-05-26T08:58:05.385Z,11.74
2019-05-26T09:00:32.502Z,11.75
2019-05-26T09:02:59.660Z,11.76
2019-05-26T09:05:26.730Z,11.74
2019-05-26T09:07:53.803Z,11.77
2019-05-26T09:10:20.903Z,11.81
2019-05-26T09:13:00.269Z,11.81
2019-05-26T09:15:17.266Z,11.81
2019-05-26T09:17:44.353Z,11.82
2019-05-26T09:20:12.152Z,11.82
2019-05-26T09:22:39.355Z,11.81
2019-05-26T09:25:07.518Z,11.79
2019-05-26T09:27:34.707Z,11.78
2019-05-26T09:30:01.783Z,11.76
2019-05-26T09:32:28.850Z,11.74
2019-05-26T09:34:56.067Z,11.76
2019-05-26T09:37:23.146Z,11.76
2019-05-26T09:39:50.214Z,11.75
2019-05-26T09:42:17.328Z,11.76
2019-05-26T09:44:44.411Z,11.80
2019-05-26T09:47:11.489Z,11.89
2019-05-26T09:49:38.575Z,11.97
2019-05-26T09:52:05.652Z,12.07
2019-05-26T09:54:32.731Z,12.22
2019-05-26T09:56:59.898Z,12.32
2019-05-26T09:59:26.964Z,12.36
2019-05-26T10:01:54.067Z,12.40
2019-05-26T10:04:21.143Z,12.48
2019-05-26T10:06:48.224Z,12.62
2019-05-26T10:09:15.300Z,12.77
2019-05-26T10:11:42.377Z,12.91
2019-05-26T10:14:09.446Z,12.98
2019-05-26T10:16:36.529Z,13.05
2019-05-26T10:19:03.604Z,13.14
2019-05-26T10:21:30.675Z,13.27
2019-05-26T10:23:57.750Z,13.42
2019-05-26T10:26:24.834Z,13.55
2019-05-26T10:28:51.923Z,13.66
2019-05-26T10:31:18.996Z,13.74
2019-05-26T10:33:47.872Z,13.79
2019-05-26T10:36:14.943Z,13.77
2019-05-26T10:38:42.018Z,13.75
2019-05-26T10:41:09.086Z,13.75
2019-05-26T10:43:47.035Z,13.68
2019-05-26T10:46:05.262Z,13.63
2019-05-26T10:48:32.334Z,13.59
2019-05-26T10:50:59.406Z,13.51
2019-05-26T10:53:26.485Z,13.40
2019-05-26T10:55:53.559Z,13.33
2019-05-26T10:58:20.633Z,13.20
2019-05-26T11:00:47.707Z,13.11
2019-05-26T11:03:14.786Z,13.05
2019-05-26T11:05:42.023Z,13.00
2019-05-26T11:08:09.095Z,12.96
2019-05-26T11:10:36.173Z,12.91
2019-05-26T11:13:03.547Z,12.86
2019-05-26T11:15:30.629Z,12.75
2019-05-26T11:17:57.844Z,12.61
2019-05-26T11:20:25.135Z,12.44
2019-05-26T11:22:52.229Z,12.28
2019-05-26T11:25:19.413Z,12.18
2019-05-26T11:27:46.491Z,12.23
2019-05-26T11:30:14.988Z,12.33
2019-05-26T11:32:44.513Z,12.45
2019-05-26T11:35:11.941Z,12.55
2019-05-26T11:37:39.012Z,12.69
2019-05-26T11:40:06.528Z,12.83
2019-05-26T11:42:33.603Z,12.94
2019-05-26T11:45:00.682Z,13.08
2019-05-26T11:47:27.757Z,13.17
2019-05-26T11:49:54.833Z,13.03
2019-05-26T11:52:23.212Z,12.32
2019-05-26T11:54:50.298Z,11.59
2019-05-26T11:57:17.371Z,11.04
2019-05-26T11:59:47.151Z,10.58
2019-05-26T12:02:13.432Z,10.23
2019-05-26T12:04:40.533Z,10.05
2019-05-26T12:07:11.040Z,9.93
2019-05-26T12:09:38.179Z,9.84
2019-05-26T12:12:06.540Z,9.81
2019-05-26T12:14:35.503Z,9.80
2019-05-26T12:17:02.919Z,9.81
2019-05-26T12:19:32.991Z,9.84
2019-05-26T12:22:00.195Z,9.87
2019-05-26T12:24:27.327Z,9.92
2019-05-26T12:26:56.950Z,9.93
2019-05-26T12:29:25.481Z,9.93
2019-05-26T12:31:54.558Z,10.00
2019-05-26T12:34:23.877Z,9.99
2019-05-26T12:36:53.799Z,10.01
2019-05-26T12:39:20.922Z,9.92
2019-05-26T12:41:48.104Z,9.84
2019-05-26T12:44:15.242Z,9.82
2019-05-26T12:46:42.375Z,9.86
2019-05-26T12:49:09.635Z,9.92
2019-05-26T12:51:36.825Z,9.97
2019-05-26T12:54:07.495Z,10.02
2019-05-26T12:56:36.818Z,10.08
2019-05-26T12:59:04.618Z,10.15
2019-05-26T13:01:31.946Z,10.29
2019-05-26T13:04:01.787Z,10.40
2019-05-26T13:06:28.863Z,10.54
2019-05-26T13:08:55.940Z,10.69
2019-05-26T13:11:23.053Z,10.86
2019-05-26T13:13:50.099Z,11.08
2019-05-26T13:16:17.184Z,11.30
2019-05-26T13:18:44.264Z,11.56
2019-05-26T13:21:11.397Z,11.77
2019-05-26T13:23:38.500Z,11.98
2019-05-26T13:26:05.563Z,12.23
2019-05-26T13:28:32.662Z,12.49
2019-05-26T13:30:59.728Z,12.72
2019-05-26T13:33:26.818Z,12.93
2019-05-26T13:35:53.886Z,13.16
2019-05-26T13:38:20.986Z,13.39
2019-05-26T13:40:48.056Z,13.50
2019-05-26T13:43:15.157Z,13.49
2019-05-26T13:45:42.228Z,13.39
2019-05-26T13:48:09.309Z,13.29
2019-05-26T13:50:36.395Z,13.16
2019-05-26T13:53:03.766Z,13.03
2019-05-26T13:55:30.843Z,12.84
2019-05-26T13:57:57.944Z,12.48
2019-05-26T14:00:25.168Z,12.06
2019-05-26T14:02:52.459Z,11.74
2019-05-26T14:05:19.665Z,11.49
2019-05-26T14:07:46.783Z,11.37
2019-05-26T14:10:19.363Z,11.34
2019-05-26T14:12:46.546Z,11.36
2019-05-26T14:15:14.111Z,11.39
2019-05-26T14:17:42.799Z,11.42
2019-05-26T14:20:11.598Z,11.42
2019-05-26T14:22:38.657Z,11.36
2019-05-26T14:25:06.953Z,11.38
2019-05-26T14:27:34.068Z,11.48
2019-05-26T14:30:01.411Z,11.58
2019-05-26T14:32:28.473Z,11.74
2019-05-26T14:34:55.552Z,11.86
2019-05-26T14:37:22.628Z,11.99
2019-05-26T14:39:50.144Z,12.19
2019-05-26T14:42:17.403Z,12.44
2019-05-26T14:44:44.504Z,12.85
2019-05-26T14:47:11.586Z,13.27
2019-05-26T14:49:38.658Z,13.54
2019-05-26T14:52:05.794Z,13.62
2019-05-26T14:54:32.887Z,13.62
2019-05-26T14:56:59.971Z,13.55
2019-05-26T14:59:27.046Z,13.44
2019-05-26T15:01:54.119Z,13.32
2019-05-26T15:04:21.188Z,13.15
2019-05-26T15:06:49.373Z,13.01
2019-05-26T15:09:24.795Z,12.85
2019-05-26T15:11:45.682Z,12.66
2019-05-26T15:14:12.775Z,12.59
2019-05-26T15:16:39.853Z,12.43
2019-05-26T15:19:06.927Z,12.36
2019-05-26T15:21:34.006Z,12.28
2019-05-26T15:24:01.078Z,12.22
2019-05-26T15:26:28.205Z,12.18
2019-05-26T15:28:55.331Z,12.12
2019-05-26T15:31:22.413Z,12.04
2019-05-26T15:33:49.469Z,11.97
2019-05-26T15:36:16.557Z,11.99
2019-05-26T15:38:43.631Z,11.92
2019-05-26T15:41:10.743Z,11.89
2019-05-26T15:43:37.785Z,11.85
2019-05-26T15:46:04.890Z,11.84
2019-05-26T15:48:31.971Z,11.79
2019-05-26T15:50:59.046Z,11.81
2019-05-26T15:53:26.631Z,11.83
2019-05-26T15:55:53.906Z,11.78
2019-05-26T15:58:21.043Z,11.77
2019-05-26T16:00:48.329Z,11.80
2019-05-26T16:03:17.441Z,11.79
2019-05-26T16:05:48.568Z,11.76
2019-05-26T16:08:21.785Z,11.73
2019-05-26T16:10:51.532Z,11.65
2019-05-26T16:13:22.708Z,11.59
2019-05-26T16:15:49.786Z,11.58
2019-05-26T16:18:19.240Z,11.56
2019-05-26T16:20:48.770Z,11.54
2019-05-26T16:23:16.142Z,11.49
2019-05-26T16:25:44.841Z,11.44
2019-05-26T16:28:13.774Z,11.43
2019-05-26T16:30:42.111Z,11.42
2019-05-26T16:33:09.339Z,11.41
2019-05-26T16:35:36.647Z,11.39
2019-05-26T16:38:03.996Z,11.35
2019-05-26T16:40:33.004Z,11.32
2019-05-26T16:43:00.578Z,11.22
2019-05-26T16:45:31.562Z,11.13
2019-05-26T16:47:58.843Z,11.10
2019-05-26T16:50:25.996Z,10.89
2019-05-26T16:52:54.651Z,10.85
2019-05-26T16:55:21.986Z,10.75
2019-05-26T16:57:49.271Z,10.76
2019-05-26T17:00:18.348Z,10.84
2019-05-26T17:02:48.188Z,10.74
2019-05-26T17:05:15.456Z,10.67
2019-05-26T17:07:45.490Z,10.70
2019-05-26T17:10:17.435Z,10.73
2019-05-26T17:12:47.159Z,10.64
2019-05-26T17:15:15.991Z,10.55
2019-05-26T17:17:45.019Z,10.42
2019-05-26T17:20:14.275Z,10.36
2019-05-26T17:22:41.574Z,10.28
2019-05-26T17:25:10.822Z,10.25
2019-05-26T17:27:37.963Z,10.32
2019-05-26T17:30:06.123Z,10.36
2019-05-26T17:32:39.115Z,10.33
2019-05-26T17:35:06.751Z,10.43
2019-05-26T17:37:35.658Z,10.34
2019-05-26T17:40:05.620Z,10.25
2019-05-26T17:42:35.083Z,10.15
2019-05-26T17:45:02.330Z,10.19
2019-05-26T17:47:30.928Z,10.17
2019-05-26T17:50:00.474Z,10.18
2019-05-26T17:52:27.554Z,10.30
2019-05-26T17:54:54.615Z,10.46
2019-05-26T17:57:23.530Z,10.46
2019-05-26T17:59:50.640Z,10.43
2019-05-26T18:02:20.761Z,10.58
2019-05-26T18:04:48.083Z,10.71
2019-05-26T18:07:15.165Z,10.63
2019-05-26T18:09:44.473Z,10.56
2019-05-26T18:12:11.258Z,10.46
2019-05-26T18:14:38.634Z,10.38
2019-05-26T18:17:05.765Z,10.36
2019-05-26T18:19:35.692Z,10.29
2019-05-26T18:22:02.916Z,10.21
2019-05-26T18:24:30.036Z,10.14
2019-05-26T18:26:57.271Z,10.14
2019-05-26T18:29:24.312Z,10.14
2019-05-26T18:31:51.420Z,10.09
2019-05-26T18:34:18.533Z,10.05
2019-05-26T18:36:48.376Z,10.01
2019-05-26T18:39:15.475Z,10.03
2019-05-26T18:41:42.580Z,10.08
2019-05-26T18:44:09.740Z,10.06
2019-05-26T18:46:36.824Z,10.02
2019-05-26T18:49:04.078Z,10.02
2019-05-26T18:51:31.368Z,9.99
2019-05-26T18:53:58.873Z,9.95
2019-05-26T18:56:28.564Z,9.97
2019-05-26T18:58:57.339Z,9.91
2019-05-26T19:01:24.698Z,9.89
2019-05-26T19:03:51.879Z,9.88
2019-05-26T19:06:18.970Z,9.89
2019-05-26T19:08:55.390Z,9.86
2019-05-26T19:11:23.642Z,9.91
2019-05-26T19:13:50.860Z,9.95
2019-05-26T19:16:19.251Z,9.98
2019-05-26T19:18:48.110Z,9.96
2019-05-26T19:21:15.250Z,9.95
2019-05-26T19:23:42.423Z,9.95
2019-05-26T19:26:09.727Z,9.90
2019-05-26T19:28:36.841Z,9.90
2019-05-26T19:31:05.055Z,9.86
2019-05-26T19:33:34.695Z,9.87
2019-05-26T19:36:01.884Z,9.78
2019-05-26T19:38:28.978Z,9.83
2019-05-26T19:40:56.306Z,9.79
2019-05-26T19:43:23.386Z,9.72
2019-05-26T19:45:50.667Z,9.70
2019-05-26T19:48:17.737Z,9.72
2019-05-26T19:50:44.822Z,9.72
2019-05-26T19:53:11.931Z,9.76
2019-05-26T19:55:42.078Z,9.72
2019-05-26T19:58:09.147Z,9.74
2019-05-26T20:00:36.239Z,9.80
2019-05-26T20:03:03.729Z,9.79
2019-05-26T20:05:32.640Z,9.81
2019-05-26T20:07:59.739Z,9.81
2019-05-26T20:10:26.889Z,9.73
2019-05-26T20:12:53.978Z,9.70
2019-05-26T20:15:22.626Z,9.68
2019-05-26T20:18:17.465Z,9.69
2019-05-26T20:20:44.544Z,9.70
2019-05-26T20:23:12.726Z,9.68
2019-05-26T20:25:39.794Z,9.68
2019-05-26T20:28:06.899Z,9.67
2019-05-26T20:30:36.713Z,9.64
2019-05-26T20:33:03.798Z,9.61
2019-05-26T20:35:34.922Z,9.58
2019-05-26T20:38:01.993Z,9.55
2019-05-26T20:40:34.790Z,9.54
2019-05-26T20:43:09.360Z,9.53
2019-05-26T20:45:40.915Z,9.46
2019-05-26T20:48:07.985Z,9.40
2019-05-26T20:50:35.050Z,9.37
2019-05-26T20:53:02.151Z,9.33
2019-05-26T20:55:29.376Z,9.30
2019-05-26T20:58:00.083Z,9.29
2019-05-26T21:00:27.306Z,9.24
2019-05-26T21:03:00.128Z,9.15
2019-05-26T21:05:34.086Z,9.05
2019-05-26T21:08:01.167Z,8.97
2019-05-26T21:10:28.256Z,8.88
2019-05-26T21:12:55.351Z,8.87
2019-05-26T21:15:22.430Z,8.85
2019-05-26T21:17:49.535Z,8.78
2019-05-26T21:20:19.306Z,8.73
2019-05-26T21:22:47.756Z,8.67
2019-05-26T21:25:17.056Z,8.60
2019-05-26T21:27:44.146Z,8.56
2019-05-26T21:30:12.778Z,8.54
2019-05-26T21:32:39.868Z,8.54
2019-05-26T21:35:07.289Z,8.53
2019-05-26T21:37:34.364Z,8.52
2019-05-26T21:40:02.754Z,8.48
2019-05-26T21:42:29.842Z,8.44
2019-05-26T21:45:00.074Z,8.41
2019-05-26T21:47:27.158Z,8.39
2019-05-26T21:49:55.616Z,8.33
2019-05-26T21:52:22.696Z,8.28
2019-05-26T21:54:49.773Z,8.26
2019-05-26T21:57:16.852Z,8.26
2019-05-26T21:59:43.948Z,8.25
2019-05-26T22:02:11.129Z,8.24
2019-05-26T22:04:38.270Z,8.26
2019-05-26T22:07:05.484Z,8.27
2019-05-26T22:09:32.682Z,8.28
2019-05-26T22:11:59.779Z,8.27
2019-05-26T22:14:26.855Z,8.26
2019-05-26T22:16:53.944Z,8.25
2019-05-26T22:19:21.024Z,8.23
2019-05-26T22:21:48.118Z,8.22
2019-05-26T22:24:15.271Z,8.21
2019-05-26T22:26:42.427Z,8.20
2019-05-26T22:29:09.507Z,8.18
2019-05-26T22:31:36.586Z,8.14
2019-05-26T22:34:03.678Z,8.13
2019-05-26T22:36:30.780Z,8.12
2019-05-26T22:38:57.856Z,8.12
2019-05-26T22:41:24.974Z,8.10
2019-05-26T22:43:52.030Z,8.08
2019-05-26T22:46:19.111Z,8.05
2019-05-26T22:48:46.202Z,8.03
2019-05-26T22:51:13.297Z,8.00
2019-05-26T22:53:40.402Z,7.97
2019-05-26T22:56:07.508Z,7.93
2019-05-26T22:58:34.598Z,7.87
2019-05-26T23:01:01.682Z,7.85
2019-05-26T23:03:28.799Z,7.81
2019-05-26T23:05:55.928Z,7.76
2019-05-26T23:08:24.129Z,7.72
2019-05-26T23:10:51.218Z,7.68
2019-05-26T23:13:18.295Z,7.64
2019-05-26T23:15:45.379Z,7.59
2019-05-26T23:18:12.469Z,7.57
2019-05-26T23:20:39.561Z,7.55
2019-05-26T23:23:06.635Z,7.53
2019-05-26T23:25:33.740Z,7.50
2019-05-26T23:28:00.829Z,7.50
2019-05-26T23:30:27.936Z,7.50
2019-05-26T23:32:55.065Z,7.51
2019-05-26T23:35:22.183Z,7.51
2019-05-26T23:37:56.984Z,7.53
2019-05-26T23:40:28.554Z,7.53
2019-05-26T23:42:57.715Z,7.50
2019-05-26T23:45:29.660Z,7.46
2019-05-26T23:47:57.001Z,7.41
2019-05-26T23:50:31.548Z,7.38
2019-05-26T23:53:00.639Z,7.35
2019-05-26T23:55:32.818Z,7.32
2019-05-26T23:58:04.700Z,7.30
